sensor_id;sensor_type;location;lat;lon;timestamp;P1;durP1;ratioP1;P2;durP2;ratioP2
5137;SDS011;53959;53.626;11.410;2023-05-20T00:01:35;1.57;;;1.00;;
5137;SDS011;53959;53.626;11.410;2023-05-20T00:04:01;4.10;;;0.97;;
5137;SDS011;53959;53.626;11.410;2023-05-20T00:06:26;0.70;;;0.70;;
5137;SDS011;53959;53.626;11.410;2023-05-20T00:08:51;1.37;;;0.80;;
5137;SDS011;53959;53.626;11.410;2023-05-20T00:11:17;2.00;;;0.73;;
5137;SDS011;53959;53.626;11.410;2023-05-20T00:13:42;1.63;;;0.87;;
5137;SDS011;53959;53.626;11.410;2023-05-20T00:16:07;0.90;;;0.90;;
5137;SDS011;53959;53.626;11.410;2023-05-20T00:18:33;3.03;;;1.10;;
5137;SDS011;53959;53.626;11.410;2023-05-20T00:20:58;6.63;;;1.00;;
5137;SDS011;53959;53.626;11.410;2023-05-20T00:23:23;3.43;;;1.03;;
5137;SDS011;53959;53.626;11.410;2023-05-20T00:25:49;8.33;;;1.07;;
5137;SDS011;53959;53.626;11.410;2023-05-20T00:28:14;1.07;;;0.90;;
5137;SDS011;53959;53.626;11.410;2023-05-20T00:30:40;1.07;;;0.80;;
5137;SDS011;53959;53.626;11.410;2023-05-20T00:33:06;1.80;;;0.77;;
5137;SDS011;53959;53.626;11.410;2023-05-20T00:35:31;2.07;;;1.30;;
5137;SDS011;53959;53.626;11.410;2023-05-20T00:37:57;4.33;;;1.03;;
5137;SDS011;53959;53.626;11.410;2023-05-20T00:40:22;1.73;;;0.90;;
5137;SDS011;53959;53.626;11.410;2023-05-20T00:42:49;3.40;;;0.80;;
5137;SDS011;53959;53.626;11.410;2023-05-20T00:45:14;1.80;;;0.80;;
5137;SDS011;53959;53.626;11.410;2023-05-20T00:47:40;2.53;;;1.00;;
5137;SDS011;53959;53.626;11.410;2023-05-20T00:50:06;1.90;;;1.23;;
5137;SDS011;53959;53.626;11.410;2023-05-20T00:52:34;3.30;;;0.80;;
5137;SDS011;53959;53.626;11.410;2023-05-20T00:55:00;2.70;;;0.97;;
5137;SDS011;53959;53.626;11.410;2023-05-20T00:57:26;1.27;;;0.97;;
5137;SDS011;53959;53.626;11.410;2023-05-20T00:59:51;2.60;;;1.80;;
5137;SDS011;53959;53.626;11.410;2023-05-20T01:02:17;2.77;;;0.90;;
5137;SDS011;53959;53.626;11.410;2023-05-20T01:04:43;3.33;;;1.30;;
5137;SDS011;53959;53.626;11.410;2023-05-20T01:07:11;1.80;;;1.07;;
5137;SDS011;53959;53.626;11.410;2023-05-20T01:09:39;0.80;;;0.80;;
5137;SDS011;53959;53.626;11.410;2023-05-20T01:14:47;2.00;;;1.13;;
5137;SDS011;53959;53.626;11.410;2023-05-20T01:17:15;2.03;;;1.10;;
5137;SDS011;53959;53.626;11.410;2023-05-20T01:19:45;1.53;;;0.87;;
5137;SDS011;53959;53.626;11.410;2023-05-20T01:22:13;2.10;;;1.27;;
5137;SDS011;53959;53.626;11.410;2023-05-20T01:24:42;1.30;;;0.90;;
5137;SDS011;53959;53.626;11.410;2023-05-20T01:27:10;1.30;;;1.13;;
5137;SDS011;53959;53.626;11.410;2023-05-20T01:29:39;1.50;;;1.30;;
5137;SDS011;53959;53.626;11.410;2023-05-20T01:32:06;2.07;;;0.80;;
5137;SDS011;53959;53.626;11.410;2023-05-20T01:34:37;1.53;;;1.07;;
5137;SDS011;53959;53.626;11.410;2023-05-20T01:37:05;1.40;;;1.30;;
5137;SDS011;53959;53.626;11.410;2023-05-20T01:39:33;5.57;;;1.27;;
5137;SDS011;53959;53.626;11.410;2023-05-20T01:42:02;1.60;;;1.47;;
5137;SDS011;53959;53.626;11.410;2023-05-20T01:44:29;1.67;;;0.83;;
5137;SDS011;53959;53.626;11.410;2023-05-20T01:46:54;2.97;;;0.90;;
5137;SDS011;53959;53.626;11.410;2023-05-20T01:49:20;2.40;;;1.23;;
5137;SDS011;53959;53.626;11.410;2023-05-20T01:51:45;5.50;;;1.30;;
5137;SDS011;53959;53.626;11.410;2023-05-20T01:54:11;1.37;;;1.10;;
5137;SDS011;53959;53.626;11.410;2023-05-20T01:56:36;0.87;;;0.60;;
5137;SDS011;53959;53.626;11.410;2023-05-20T01:59:01;2.33;;;1.17;;
5137;SDS011;53959;53.626;11.410;2023-05-20T02:01:27;4.77;;;1.43;;
5137;SDS011;53959;53.626;11.410;2023-05-20T02:03:52;1.50;;;0.90;;
5137;SDS011;53959;53.626;11.410;2023-05-20T02:06:17;2.27;;;1.03;;
5137;SDS011;53959;53.626;11.410;2023-05-20T02:08:43;3.17;;;1.10;;
5137;SDS011;53959;53.626;11.410;2023-05-20T02:11:08;3.70;;;1.20;;
5137;SDS011;53959;53.626;11.410;2023-05-20T02:13:35;5.03;;;1.00;;
5137;SDS011;53959;53.626;11.410;2023-05-20T02:16:00;5.07;;;1.70;;
5137;SDS011;53959;53.626;11.410;2023-05-20T02:18:26;1.83;;;0.80;;
5137;SDS011;53959;53.626;11.410;2023-05-20T02:20:51;3.23;;;1.10;;
5137;SDS011;53959;53.626;11.410;2023-05-20T02:23:16;2.17;;;1.00;;
5137;SDS011;53959;53.626;11.410;2023-05-20T02:25:42;1.63;;;1.27;;
5137;SDS011;53959;53.626;11.410;2023-05-20T02:28:08;2.07;;;1.27;;
5137;SDS011;53959;53.626;11.410;2023-05-20T02:30:36;1.37;;;1.27;;
5137;SDS011;53959;53.626;11.410;2023-05-20T02:33:04;1.17;;;1.07;;
5137;SDS011;53959;53.626;11.410;2023-05-20T02:35:29;0.93;;;0.83;;
5137;SDS011;53959;53.626;11.410;2023-05-20T02:37:55;1.37;;;1.00;;
5137;SDS011;53959;53.626;11.410;2023-05-20T02:40:20;3.60;;;1.20;;
5137;SDS011;53959;53.626;11.410;2023-05-20T02:42:46;1.63;;;1.37;;
5137;SDS011;53959;53.626;11.410;2023-05-20T02:45:12;3.83;;;1.03;;
5137;SDS011;53959;53.626;11.410;2023-05-20T02:47:37;6.73;;;1.10;;
5137;SDS011;53959;53.626;11.410;2023-05-20T02:50:04;1.30;;;1.20;;
5137;SDS011;53959;53.626;11.410;2023-05-20T02:52:29;1.20;;;1.10;;
5137;SDS011;53959;53.626;11.410;2023-05-20T02:54:55;4.20;;;1.10;;
5137;SDS011;53959;53.626;11.410;2023-05-20T02:57:21;5.53;;;1.47;;
5137;SDS011;53959;53.626;11.410;2023-05-20T02:59:47;1.90;;;1.33;;
5137;SDS011;53959;53.626;11.410;2023-05-20T03:02:12;5.93;;;1.20;;
5137;SDS011;53959;53.626;11.410;2023-05-20T03:04:38;2.40;;;1.63;;
5137;SDS011;53959;53.626;11.410;2023-05-20T03:07:05;5.27;;;1.57;;
5137;SDS011;53959;53.626;11.410;2023-05-20T03:09:34;5.03;;;1.40;;
5137;SDS011;53959;53.626;11.410;2023-05-20T03:11:59;3.67;;;1.60;;
5137;SDS011;53959;53.626;11.410;2023-05-20T03:14:24;4.10;;;1.60;;
5137;SDS011;53959;53.626;11.410;2023-05-20T03:16:50;2.07;;;1.20;;
5137;SDS011;53959;53.626;11.410;2023-05-20T03:19:17;9.03;;;1.33;;
5137;SDS011;53959;53.626;11.410;2023-05-20T03:21:42;1.67;;;1.57;;
5137;SDS011;53959;53.626;11.410;2023-05-20T03:24:08;1.47;;;1.13;;
5137;SDS011;53959;53.626;11.410;2023-05-20T03:26:34;3.20;;;1.00;;
5137;SDS011;53959;53.626;11.410;2023-05-20T03:29:03;3.70;;;1.47;;
5137;SDS011;53959;53.626;11.410;2023-05-20T03:31:29;2.67;;;1.17;;
5137;SDS011;53959;53.626;11.410;2023-05-20T03:33:55;2.00;;;0.90;;
5137;SDS011;53959;53.626;11.410;2023-05-20T03:36:21;3.07;;;1.50;;
5137;SDS011;53959;53.626;11.410;2023-05-20T03:38:46;1.10;;;1.10;;
5137;SDS011;53959;53.626;11.410;2023-05-20T03:41:12;4.23;;;1.27;;
5137;SDS011;53959;53.626;11.410;2023-05-20T03:43:38;2.50;;;1.13;;
5137;SDS011;53959;53.626;11.410;2023-05-20T03:46:04;1.63;;;1.30;;
5137;SDS011;53959;53.626;11.410;2023-05-20T03:48:29;2.83;;;1.03;;
5137;SDS011;53959;53.626;11.410;2023-05-20T03:50:55;2.00;;;0.80;;
5137;SDS011;53959;53.626;11.410;2023-05-20T03:53:20;6.43;;;1.50;;
5137;SDS011;53959;53.626;11.410;2023-05-20T03:55:45;6.73;;;1.57;;
5137;SDS011;53959;53.626;11.410;2023-05-20T03:58:12;2.43;;;1.40;;
5137;SDS011;53959;53.626;11.410;2023-05-20T04:00:39;3.13;;;1.70;;
5137;SDS011;53959;53.626;11.410;2023-05-20T04:03:05;2.13;;;1.70;;
5137;SDS011;53959;53.626;11.410;2023-05-20T04:05:31;2.03;;;1.00;;
5137;SDS011;53959;53.626;11.410;2023-05-20T04:07:56;5.67;;;2.23;;
5137;SDS011;53959;53.626;11.410;2023-05-20T04:10:23;3.00;;;1.33;;
5137;SDS011;53959;53.626;11.410;2023-05-20T04:12:49;1.80;;;1.37;;
5137;SDS011;53959;53.626;11.410;2023-05-20T04:15:15;3.40;;;1.60;;
5137;SDS011;53959;53.626;11.410;2023-05-20T04:17:48;1.63;;;1.10;;
5137;SDS011;53959;53.626;11.410;2023-05-20T04:20:14;6.20;;;1.70;;
5137;SDS011;53959;53.626;11.410;2023-05-20T04:22:40;1.43;;;1.10;;
5137;SDS011;53959;53.626;11.410;2023-05-20T04:25:05;1.57;;;1.30;;
5137;SDS011;53959;53.626;11.410;2023-05-20T04:27:31;1.83;;;1.53;;
5137;SDS011;53959;53.626;11.410;2023-05-20T04:30:02;3.23;;;1.50;;
5137;SDS011;53959;53.626;11.410;2023-05-20T04:32:32;7.60;;;1.60;;
5137;SDS011;53959;53.626;11.410;2023-05-20T04:34:58;4.93;;;1.60;;
5137;SDS011;53959;53.626;11.410;2023-05-20T04:37:26;2.97;;;2.20;;
5137;SDS011;53959;53.626;11.410;2023-05-20T04:39:52;7.63;;;1.43;;
5137;SDS011;53959;53.626;11.410;2023-05-20T04:42:18;1.60;;;1.30;;
5137;SDS011;53959;53.626;11.410;2023-05-20T04:44:46;4.67;;;1.57;;
5137;SDS011;53959;53.626;11.410;2023-05-20T04:47:13;3.00;;;1.40;;
5137;SDS011;53959;53.626;11.410;2023-05-20T04:49:39;7.67;;;1.60;;
5137;SDS011;53959;53.626;11.410;2023-05-20T04:52:05;9.20;;;1.90;;
5137;SDS011;53959;53.626;11.410;2023-05-20T04:54:31;3.33;;;1.50;;
5137;SDS011;53959;53.626;11.410;2023-05-20T04:56:57;12.37;;;1.63;;
5137;SDS011;53959;53.626;11.410;2023-05-20T04:59:24;2.10;;;1.30;;
5137;SDS011;53959;53.626;11.410;2023-05-20T05:01:49;2.10;;;1.33;;
5137;SDS011;53959;53.626;11.410;2023-05-20T05:04:15;3.63;;;1.53;;
5137;SDS011;53959;53.626;11.410;2023-05-20T05:06:40;4.97;;;1.40;;
5137;SDS011;53959;53.626;11.410;2023-05-20T05:09:07;3.47;;;1.53;;
5137;SDS011;53959;53.626;11.410;2023-05-20T05:11:33;4.70;;;1.80;;
5137;SDS011;53959;53.626;11.410;2023-05-20T05:13:59;9.20;;;2.30;;
5137;SDS011;53959;53.626;11.410;2023-05-20T05:16:25;8.33;;;2.00;;
5137;SDS011;53959;53.626;11.410;2023-05-20T05:18:51;2.70;;;1.70;;
5137;SDS011;53959;53.626;11.410;2023-05-20T05:21:16;2.90;;;1.70;;
5137;SDS011;53959;53.626;11.410;2023-05-20T05:23:42;4.50;;;1.60;;
5137;SDS011;53959;53.626;11.410;2023-05-20T05:26:09;2.97;;;1.50;;
5137;SDS011;53959;53.626;11.410;2023-05-20T05:28:34;4.00;;;1.23;;
5137;SDS011;53959;53.626;11.410;2023-05-20T05:31:00;2.30;;;1.90;;
5137;SDS011;53959;53.626;11.410;2023-05-20T05:33:26;4.30;;;2.10;;
5137;SDS011;53959;53.626;11.410;2023-05-20T05:35:52;3.67;;;1.73;;
5137;SDS011;53959;53.626;11.410;2023-05-20T05:38:17;3.07;;;1.80;;
5137;SDS011;53959;53.626;11.410;2023-05-20T05:40:43;3.50;;;2.43;;
5137;SDS011;53959;53.626;11.410;2023-05-20T05:43:09;4.53;;;2.00;;
5137;SDS011;53959;53.626;11.410;2023-05-20T05:45:35;3.20;;;1.80;;
5137;SDS011;53959;53.626;11.410;2023-05-20T05:48:00;2.97;;;1.80;;
5137;SDS011;53959;53.626;11.410;2023-05-20T05:50:25;2.50;;;1.60;;
5137;SDS011;53959;53.626;11.410;2023-05-20T05:52:51;5.87;;;1.83;;
5137;SDS011;53959;53.626;11.410;2023-05-20T05:55:17;4.77;;;2.17;;
5137;SDS011;53959;53.626;11.410;2023-05-20T05:57:43;4.20;;;1.70;;
5137;SDS011;53959;53.626;11.410;2023-05-20T06:00:10;4.03;;;1.83;;
5137;SDS011;53959;53.626;11.410;2023-05-20T06:02:44;3.60;;;2.23;;
5137;SDS011;53959;53.626;11.410;2023-05-20T06:05:14;4.20;;;2.17;;
5137;SDS011;53959;53.626;11.410;2023-05-20T06:07:39;3.80;;;1.80;;
5137;SDS011;53959;53.626;11.410;2023-05-20T06:10:05;3.40;;;1.73;;
5137;SDS011;53959;53.626;11.410;2023-05-20T06:12:31;5.30;;;1.70;;
5137;SDS011;53959;53.626;11.410;2023-05-20T06:14:56;2.23;;;1.47;;
5137;SDS011;53959;53.626;11.410;2023-05-20T06:17:21;5.53;;;1.60;;
5137;SDS011;53959;53.626;11.410;2023-05-20T06:19:47;5.80;;;1.73;;
5137;SDS011;53959;53.626;11.410;2023-05-20T06:22:13;5.73;;;2.17;;
5137;SDS011;53959;53.626;11.410;2023-05-20T06:24:38;4.00;;;1.90;;
5137;SDS011;53959;53.626;11.410;2023-05-20T06:27:04;5.37;;;2.00;;
5137;SDS011;53959;53.626;11.410;2023-05-20T06:29:30;3.87;;;2.33;;
5137;SDS011;53959;53.626;11.410;2023-05-20T06:31:55;3.27;;;2.40;;
5137;SDS011;53959;53.626;11.410;2023-05-20T06:34:21;3.10;;;2.70;;
5137;SDS011;53959;53.626;11.410;2023-05-20T06:36:47;3.57;;;1.53;;
5137;SDS011;53959;53.626;11.410;2023-05-20T06:39:13;4.20;;;2.90;;
5137;SDS011;53959;53.626;11.410;2023-05-20T06:41:41;4.20;;;2.00;;
5137;SDS011;53959;53.626;11.410;2023-05-20T06:44:08;2.40;;;1.97;;
5137;SDS011;53959;53.626;11.410;2023-05-20T06:46:57;1.90;;;1.70;;
5137;SDS011;53959;53.626;11.410;2023-05-20T06:49:22;3.67;;;2.10;;
5137;SDS011;53959;53.626;11.410;2023-05-20T06:51:49;2.10;;;2.00;;
5137;SDS011;53959;53.626;11.410;2023-05-20T06:54:15;3.77;;;1.80;;
5137;SDS011;53959;53.626;11.410;2023-05-20T06:56:41;7.13;;;1.83;;
5137;SDS011;53959;53.626;11.410;2023-05-20T06:59:06;5.70;;;2.47;;
5137;SDS011;53959;53.626;11.410;2023-05-20T07:01:33;4.57;;;2.40;;
5137;SDS011;53959;53.626;11.410;2023-05-20T07:03:59;2.13;;;2.03;;
5137;SDS011;53959;53.626;11.410;2023-05-20T07:06:25;2.23;;;2.13;;
5137;SDS011;53959;53.626;11.410;2023-05-20T07:08:50;3.00;;;2.10;;
5137;SDS011;53959;53.626;11.410;2023-05-20T07:11:16;4.73;;;2.23;;
5137;SDS011;53959;53.626;11.410;2023-05-20T07:13:43;3.17;;;1.63;;
5137;SDS011;53959;53.626;11.410;2023-05-20T07:16:08;3.83;;;2.10;;
5137;SDS011;53959;53.626;11.410;2023-05-20T07:18:36;2.87;;;2.10;;
5137;SDS011;53959;53.626;11.410;2023-05-20T07:21:01;2.40;;;2.20;;
5137;SDS011;53959;53.626;11.410;2023-05-20T07:23:37;2.17;;;1.97;;
5137;SDS011;53959;53.626;11.410;2023-05-20T07:26:03;3.97;;;2.00;;
5137;SDS011;53959;53.626;11.410;2023-05-20T07:28:28;5.33;;;2.60;;
5137;SDS011;53959;53.626;11.410;2023-05-20T07:30:54;9.03;;;1.90;;
5137;SDS011;53959;53.626;11.410;2023-05-20T07:33:24;4.80;;;2.20;;
5137;SDS011;53959;53.626;11.410;2023-05-20T07:35:49;6.77;;;2.07;;
5137;SDS011;53959;53.626;11.410;2023-05-20T07:38:16;3.23;;;1.90;;
5137;SDS011;53959;53.626;11.410;2023-05-20T07:40:43;5.03;;;2.27;;
5137;SDS011;53959;53.626;11.410;2023-05-20T07:43:09;4.20;;;2.20;;
5137;SDS011;53959;53.626;11.410;2023-05-20T07:45:35;5.13;;;2.47;;
5137;SDS011;53959;53.626;11.410;2023-05-20T07:48:02;4.73;;;2.23;;
5137;SDS011;53959;53.626;11.410;2023-05-20T07:50:28;2.90;;;2.40;;
5137;SDS011;53959;53.626;11.410;2023-05-20T07:52:53;4.80;;;2.30;;
5137;SDS011;53959;53.626;11.410;2023-05-20T07:55:19;5.77;;;2.43;;
5137;SDS011;53959;53.626;11.410;2023-05-20T07:57:44;9.67;;;2.30;;
5137;SDS011;53959;53.626;11.410;2023-05-20T08:00:10;3.23;;;1.80;;
5137;SDS011;53959;53.626;11.410;2023-05-20T08:02:42;7.73;;;2.30;;
5137;SDS011;53959;53.626;11.410;2023-05-20T08:05:08;5.60;;;2.57;;
5137;SDS011;53959;53.626;11.410;2023-05-20T08:07:33;2.70;;;2.27;;
5137;SDS011;53959;53.626;11.410;2023-05-20T08:09:59;5.80;;;2.40;;
5137;SDS011;53959;53.626;11.410;2023-05-20T08:12:26;2.13;;;1.90;;
5137;SDS011;53959;53.626;11.410;2023-05-20T08:14:52;3.17;;;2.10;;
5137;SDS011;53959;53.626;11.410;2023-05-20T08:17:18;4.17;;;2.20;;
5137;SDS011;53959;53.626;11.410;2023-05-20T08:19:43;5.60;;;2.30;;
5137;SDS011;53959;53.626;11.410;2023-05-20T08:22:12;4.20;;;2.50;;
5137;SDS011;53959;53.626;11.410;2023-05-20T08:24:37;4.93;;;2.07;;
5137;SDS011;53959;53.626;11.410;2023-05-20T08:27:02;5.57;;;2.67;;
5137;SDS011;53959;53.626;11.410;2023-05-20T08:29:30;6.40;;;2.60;;
5137;SDS011;53959;53.626;11.410;2023-05-20T08:31:56;6.53;;;2.20;;
5137;SDS011;53959;53.626;11.410;2023-05-20T08:34:23;7.13;;;2.27;;
5137;SDS011;53959;53.626;11.410;2023-05-20T08:36:49;6.33;;;2.37;;
5137;SDS011;53959;53.626;11.410;2023-05-20T08:39:15;4.53;;;2.40;;
5137;SDS011;53959;53.626;11.410;2023-05-20T08:41:40;4.97;;;2.20;;
5137;SDS011;53959;53.626;11.410;2023-05-20T08:44:06;6.90;;;2.00;;
5137;SDS011;53959;53.626;11.410;2023-05-20T08:46:34;3.50;;;1.90;;
5137;SDS011;53959;53.626;11.410;2023-05-20T08:49:01;9.43;;;2.37;;
5137;SDS011;53959;53.626;11.410;2023-05-20T08:51:26;3.67;;;2.00;;
5137;SDS011;53959;53.626;11.410;2023-05-20T08:53:53;2.83;;;1.80;;
5137;SDS011;53959;53.626;11.410;2023-05-20T08:56:18;3.83;;;2.17;;
5137;SDS011;53959;53.626;11.410;2023-05-20T08:58:45;4.80;;;2.20;;
5137;SDS011;53959;53.626;11.410;2023-05-20T09:01:12;4.07;;;2.30;;
5137;SDS011;53959;53.626;11.410;2023-05-20T09:03:37;7.70;;;2.23;;
5137;SDS011;53959;53.626;11.410;2023-05-20T09:06:03;16.57;;;2.47;;
5137;SDS011;53959;53.626;11.410;2023-05-20T09:08:33;3.93;;;2.20;;
5137;SDS011;53959;53.626;11.410;2023-05-20T09:10:59;6.07;;;2.17;;
5137;SDS011;53959;53.626;11.410;2023-05-20T09:13:25;5.93;;;2.73;;
5137;SDS011;53959;53.626;11.410;2023-05-20T09:15:51;3.57;;;2.10;;
5137;SDS011;53959;53.626;11.410;2023-05-20T09:18:17;2.73;;;1.90;;
5137;SDS011;53959;53.626;11.410;2023-05-20T09:20:45;4.33;;;2.23;;
5137;SDS011;53959;53.626;11.410;2023-05-20T09:23:11;2.17;;;1.93;;
5137;SDS011;53959;53.626;11.410;2023-05-20T09:25:36;3.27;;;1.90;;
5137;SDS011;53959;53.626;11.410;2023-05-20T09:28:06;2.13;;;1.90;;
5137;SDS011;53959;53.626;11.410;2023-05-20T09:30:31;2.13;;;1.73;;
5137;SDS011;53959;53.626;11.410;2023-05-20T09:32:58;3.70;;;1.90;;
5137;SDS011;53959;53.626;11.410;2023-05-20T09:35:25;1.57;;;1.47;;
5137;SDS011;53959;53.626;11.410;2023-05-20T09:37:55;1.70;;;1.60;;
5137;SDS011;53959;53.626;11.410;2023-05-20T09:40:22;2.43;;;1.30;;
5137;SDS011;53959;53.626;11.410;2023-05-20T09:42:52;2.27;;;1.73;;
5137;SDS011;53959;53.626;11.410;2023-05-20T09:45:27;1.90;;;1.70;;
5137;SDS011;53959;53.626;11.410;2023-05-20T09:47:53;2.90;;;2.00;;
5137;SDS011;53959;53.626;11.410;2023-05-20T09:50:20;1.57;;;1.47;;
5137;SDS011;53959;53.626;11.410;2023-05-20T09:52:47;2.73;;;1.37;;
5137;SDS011;53959;53.626;11.410;2023-05-20T09:55:14;2.80;;;2.10;;
5137;SDS011;53959;53.626;11.410;2023-05-20T09:57:41;2.17;;;1.43;;
5137;SDS011;53959;53.626;11.410;2023-05-20T10:00:07;2.00;;;1.90;;
5137;SDS011;53959;53.626;11.410;2023-05-20T10:02:41;2.00;;;1.60;;
5137;SDS011;53959;53.626;11.410;2023-05-20T10:05:10;4.33;;;1.90;;
5137;SDS011;53959;53.626;11.410;2023-05-20T10:10:26;1.67;;;1.57;;
5137;SDS011;53959;53.626;11.410;2023-05-20T10:18:54;2.30;;;1.83;;
5137;SDS011;53959;53.626;11.410;2023-05-20T10:21:39;1.77;;;1.67;;
5137;SDS011;53959;53.626;11.410;2023-05-20T10:24:06;2.30;;;2.10;;
5137;SDS011;53959;53.626;11.410;2023-05-20T10:26:38;4.10;;;1.90;;
5137;SDS011;53959;53.626;11.410;2023-05-20T10:29:15;6.23;;;1.67;;
5137;SDS011;53959;53.626;11.410;2023-05-20T10:31:48;1.60;;;1.50;;
5137;SDS011;53959;53.626;11.410;2023-05-20T10:34:15;1.80;;;1.70;;
5137;SDS011;53959;53.626;11.410;2023-05-20T10:37:06;2.80;;;1.50;;
5137;SDS011;53959;53.626;11.410;2023-05-20T10:39:31;2.23;;;1.50;;
5137;SDS011;53959;53.626;11.410;2023-05-20T10:42:06;4.23;;;1.67;;
5137;SDS011;53959;53.626;11.410;2023-05-20T10:45:05;2.30;;;2.10;;
5137;SDS011;53959;53.626;11.410;2023-05-20T10:47:23;2.17;;;1.73;;
5137;SDS011;53959;53.626;11.410;2023-05-20T10:49:49;3.43;;;1.77;;
5137;SDS011;53959;53.626;11.410;2023-05-20T10:52:18;3.33;;;1.50;;
5137;SDS011;53959;53.626;11.410;2023-05-20T10:54:57;2.13;;;1.60;;
5137;SDS011;53959;53.626;11.410;2023-05-20T10:57:27;3.27;;;1.70;;
5137;SDS011;53959;53.626;11.410;2023-05-20T10:59:53;1.80;;;1.70;;
5137;SDS011;53959;53.626;11.410;2023-05-20T11:02:20;1.93;;;1.83;;
5137;SDS011;53959;53.626;11.410;2023-05-20T11:04:57;5.63;;;4.30;;
5137;SDS011;53959;53.626;11.410;2023-05-20T11:07:26;5.23;;;2.77;;
5137;SDS011;53959;53.626;11.410;2023-05-20T11:09:53;10.57;;;4.87;;
5137;SDS011;53959;53.626;11.410;2023-05-20T11:12:32;5.57;;;2.40;;
5137;SDS011;53959;53.626;11.410;2023-05-20T11:14:57;6.73;;;3.83;;
5137;SDS011;53959;53.626;11.410;2023-05-20T11:17:22;2.43;;;2.23;;
5137;SDS011;53959;53.626;11.410;2023-05-20T11:19:48;3.60;;;2.23;;
5137;SDS011;53959;53.626;11.410;2023-05-20T11:22:13;3.20;;;2.93;;
5137;SDS011;53959;53.626;11.410;2023-05-20T11:24:38;5.93;;;4.20;;
5137;SDS011;53959;53.626;11.410;2023-05-20T11:27:04;2.23;;;2.13;;
5137;SDS011;53959;53.626;11.410;2023-05-20T11:29:30;4.80;;;3.07;;
5137;SDS011;53959;53.626;11.410;2023-05-20T11:31:56;3.00;;;1.93;;
5137;SDS011;53959;53.626;11.410;2023-05-20T11:34:24;1.80;;;1.67;;
5137;SDS011;53959;53.626;11.410;2023-05-20T11:36:56;1.67;;;1.57;;
5137;SDS011;53959;53.626;11.410;2023-05-20T11:39:22;2.30;;;1.53;;
5137;SDS011;53959;53.626;11.410;2023-05-20T11:41:48;1.50;;;1.40;;
5137;SDS011;53959;53.626;11.410;2023-05-20T11:44:14;2.40;;;2.20;;
5137;SDS011;53959;53.626;11.410;2023-05-20T11:46:40;2.30;;;2.10;;
5137;SDS011;53959;53.626;11.410;2023-05-20T11:49:07;1.80;;;1.63;;
5137;SDS011;53959;53.626;11.410;2023-05-20T11:51:32;2.00;;;1.90;;
5137;SDS011;53959;53.626;11.410;2023-05-20T11:53:58;2.30;;;1.63;;
5137;SDS011;53959;53.626;11.410;2023-05-20T11:56:27;1.80;;;1.30;;
5137;SDS011;53959;53.626;11.410;2023-05-20T11:59:00;1.57;;;1.57;;
5137;SDS011;53959;53.626;11.410;2023-05-20T12:01:26;2.23;;;2.13;;
5137;SDS011;53959;53.626;11.410;2023-05-20T12:03:53;1.60;;;1.50;;
5137;SDS011;53959;53.626;11.410;2023-05-20T12:06:18;6.97;;;2.10;;
5137;SDS011;53959;53.626;11.410;2023-05-20T12:08:44;1.50;;;1.40;;
5137;SDS011;53959;53.626;11.410;2023-05-20T12:11:11;1.97;;;1.77;;
5137;SDS011;53959;53.626;11.410;2023-05-20T12:13:36;4.07;;;2.03;;
5137;SDS011;53959;53.626;11.410;2023-05-20T12:16:02;2.00;;;1.83;;
5137;SDS011;53959;53.626;11.410;2023-05-20T12:18:29;3.43;;;1.77;;
5137;SDS011;53959;53.626;11.410;2023-05-20T12:20:56;4.03;;;2.10;;
5137;SDS011;53959;53.626;11.410;2023-05-20T12:23:22;4.00;;;1.90;;
5137;SDS011;53959;53.626;11.410;2023-05-20T12:25:47;4.00;;;2.10;;
5137;SDS011;53959;53.626;11.410;2023-05-20T12:28:14;3.50;;;1.87;;
5137;SDS011;53959;53.626;11.410;2023-05-20T12:30:40;1.90;;;1.80;;
5137;SDS011;53959;53.626;11.410;2023-05-20T12:33:06;1.57;;;1.57;;
5137;SDS011;53959;53.626;11.410;2023-05-20T12:35:38;1.83;;;1.73;;
5137;SDS011;53959;53.626;11.410;2023-05-20T12:38:05;2.83;;;1.97;;
5137;SDS011;53959;53.626;11.410;2023-05-20T12:40:31;3.80;;;2.30;;
5137;SDS011;53959;53.626;11.410;2023-05-20T12:42:57;3.50;;;2.20;;
5137;SDS011;53959;53.626;11.410;2023-05-20T12:45:23;3.57;;;2.47;;
5137;SDS011;53959;53.626;11.410;2023-05-20T12:47:48;6.97;;;1.93;;
5137;SDS011;53959;53.626;11.410;2023-05-20T12:50:14;5.60;;;2.10;;
5137;SDS011;53959;53.626;11.410;2023-05-20T12:52:39;6.00;;;1.77;;
5137;SDS011;53959;53.626;11.410;2023-05-20T12:55:05;3.80;;;2.03;;
5137;SDS011;53959;53.626;11.410;2023-05-20T12:57:37;7.30;;;3.27;;
5137;SDS011;53959;53.626;11.410;2023-05-20T13:00:04;2.57;;;2.37;;
5137;SDS011;53959;53.626;11.410;2023-05-20T13:02:30;2.50;;;2.40;;
5137;SDS011;53959;53.626;11.410;2023-05-20T13:04:55;9.83;;;2.20;;
5137;SDS011;53959;53.626;11.410;2023-05-20T13:07:21;2.53;;;2.27;;
5137;SDS011;53959;53.626;11.410;2023-05-20T13:09:46;4.10;;;2.63;;
5137;SDS011;53959;53.626;11.410;2023-05-20T13:12:12;9.30;;;2.57;;
5137;SDS011;53959;53.626;11.410;2023-05-20T13:14:37;4.13;;;2.80;;
5137;SDS011;53959;53.626;11.410;2023-05-20T13:17:03;2.50;;;2.23;;
5137;SDS011;53959;53.626;11.410;2023-05-20T13:19:28;2.43;;;2.20;;
5137;SDS011;53959;53.626;11.410;2023-05-20T13:21:53;2.57;;;2.40;;
5137;SDS011;53959;53.626;11.410;2023-05-20T13:24:19;2.83;;;2.17;;
5137;SDS011;53959;53.626;11.410;2023-05-20T13:26:44;3.10;;;2.77;;
5137;SDS011;53959;53.626;11.410;2023-05-20T13:29:10;3.07;;;2.67;;
5137;SDS011;53959;53.626;11.410;2023-05-20T13:31:36;15.17;;;2.80;;
5137;SDS011;53959;53.626;11.410;2023-05-20T13:34:02;2.83;;;2.33;;
5137;SDS011;53959;53.626;11.410;2023-05-20T13:36:27;10.33;;;3.07;;
5137;SDS011;53959;53.626;11.410;2023-05-20T13:38:53;4.73;;;3.20;;
5137;SDS011;53959;53.626;11.410;2023-05-20T13:41:18;8.10;;;3.30;;
5137;SDS011;53959;53.626;11.410;2023-05-20T13:43:44;3.27;;;2.87;;
5137;SDS011;53959;53.626;11.410;2023-05-20T13:46:09;5.77;;;2.73;;
5137;SDS011;53959;53.626;11.410;2023-05-20T13:48:35;6.90;;;2.77;;
5137;SDS011;53959;53.626;11.410;2023-05-20T13:51:00;4.63;;;2.50;;
5137;SDS011;53959;53.626;11.410;2023-05-20T13:53:26;4.60;;;2.97;;
5137;SDS011;53959;53.626;11.410;2023-05-20T13:55:52;3.00;;;2.47;;
5137;SDS011;53959;53.626;11.410;2023-05-20T13:58:17;5.23;;;2.93;;
5137;SDS011;53959;53.626;11.410;2023-05-20T14:00:43;8.47;;;2.90;;
5137;SDS011;53959;53.626;11.410;2023-05-20T14:03:08;4.73;;;2.10;;
5137;SDS011;53959;53.626;11.410;2023-05-20T14:05:34;5.47;;;2.37;;
5137;SDS011;53959;53.626;11.410;2023-05-20T14:08:00;2.30;;;2.20;;
5137;SDS011;53959;53.626;11.410;2023-05-20T14:10:26;2.43;;;2.23;;
5137;SDS011;53959;53.626;11.410;2023-05-20T14:12:52;2.80;;;2.53;;
5137;SDS011;53959;53.626;11.410;2023-05-20T14:15:19;2.10;;;1.93;;
5137;SDS011;53959;53.626;11.410;2023-05-20T14:17:45;2.77;;;2.57;;
5137;SDS011;53959;53.626;11.410;2023-05-20T14:20:11;3.17;;;2.53;;
5137;SDS011;53959;53.626;11.410;2023-05-20T14:22:36;5.47;;;3.10;;
5137;SDS011;53959;53.626;11.410;2023-05-20T14:25:02;4.70;;;2.57;;
5137;SDS011;53959;53.626;11.410;2023-05-20T14:27:28;6.30;;;2.93;;
5137;SDS011;53959;53.626;11.410;2023-05-20T14:29:53;3.53;;;2.60;;
5137;SDS011;53959;53.626;11.410;2023-05-20T14:32:19;2.53;;;2.43;;
5137;SDS011;53959;53.626;11.410;2023-05-20T14:34:44;12.10;;;2.57;;
5137;SDS011;53959;53.626;11.410;2023-05-20T14:37:09;4.00;;;2.97;;
5137;SDS011;53959;53.626;11.410;2023-05-20T14:39:36;5.67;;;2.67;;
5137;SDS011;53959;53.626;11.410;2023-05-20T14:42:01;4.50;;;3.07;;
5137;SDS011;53959;53.626;11.410;2023-05-20T14:44:27;6.10;;;3.50;;
5137;SDS011;53959;53.626;11.410;2023-05-20T14:46:53;3.17;;;2.70;;
5137;SDS011;53959;53.626;11.410;2023-05-20T14:49:18;3.47;;;3.17;;
5137;SDS011;53959;53.626;11.410;2023-05-20T14:51:44;5.97;;;3.37;;
5137;SDS011;53959;53.626;11.410;2023-05-20T14:54:09;4.27;;;2.67;;
5137;SDS011;53959;53.626;11.410;2023-05-20T14:56:35;2.90;;;2.70;;